createdAt,value
2022-11-23T00:01:31.463Z,3.40
2022-11-23T00:04:00.684Z,3.40
2022-11-23T00:11:23.544Z,3.40
2022-11-23T00:16:29.597Z,3.40
2022-11-23T00:19:00.999Z,3.40
2022-11-23T00:21:30.488Z,3.40
2022-11-23T00:31:20.566Z,3.30
2022-11-23T00:33:52.533Z,3.30
2022-11-23T00:36:20.325Z,3.30
2022-11-23T00:38:48.233Z,3.30
2022-11-23T00:41:20.259Z,3.30
2022-11-23T00:46:28.211Z,3.40
2022-11-23T00:48:56.915Z,3.30
2022-11-23T00:51:26.626Z,3.30
2022-11-23T00:58:50.327Z,3.40
2022-11-23T01:01:18.974Z,3.30
2022-11-23T01:03:51.358Z,3.30
2022-11-23T01:06:23.834Z,3.20
2022-11-23T01:08:56.150Z,3.20
2022-11-23T01:11:24.958Z,3.20
2022-11-23T01:13:52.307Z,3.20
2022-11-23T01:16:28.476Z,3.30
2022-11-23T01:18:57.101Z,3.30
2022-11-23T01:21:25.272Z,3.30
2022-11-23T01:31:19.309Z,3.40
2022-11-23T01:36:19.764Z,3.40
2022-11-23T01:38:48.620Z,3.50
2022-11-23T01:41:38.180Z,3.40
2022-11-23T01:44:29.391Z,3.40
2022-11-23T01:47:01.752Z,3.50
2022-11-23T01:49:51.908Z,3.50
2022-11-23T01:52:22.343Z,3.50
2022-11-23T01:54:53.616Z,3.50
2022-11-23T01:57:25.955Z,3.50
2022-11-23T01:59:54.482Z,3.40
2022-11-23T02:04:52.212Z,3.50
2022-11-23T02:07:20.631Z,3.50
2022-11-23T02:14:43.157Z,3.60
2022-11-23T02:20:07.890Z,3.60
2022-11-23T02:23:03.814Z,3.60
2022-11-23T02:25:45.871Z,3.60
2022-11-23T02:28:35.402Z,3.60
2022-11-23T02:33:30.669Z,3.60
2022-11-23T02:35:59.928Z,3.60
2022-11-23T02:38:34.100Z,3.70
2022-11-23T02:45:57.859Z,3.60
2022-11-23T03:30:10.096Z,3.70
2022-11-23T03:35:05.486Z,3.80
2022-11-23T04:43:50.058Z,3.40
2022-11-23T05:05:59.146Z,3.20
2022-11-23T05:23:10.854Z,3.20
2022-11-23T05:55:27.044Z,3.40
2022-11-23T06:10:12.176Z,3.40
2022-11-23T07:02:12.811Z,3.50
2022-11-23T07:07:09.873Z,3.40
2022-11-23T08:01:19.358Z,3.80
2022-11-23T08:03:47.120Z,3.80
2022-11-23T08:06:14.992Z,3.90
2022-11-23T08:11:10.196Z,4.00
2022-11-23T08:21:02.532Z,4.10
2022-11-23T08:48:03.844Z,4.40
2022-11-23T08:52:59.698Z,4.50
2022-11-23T08:55:27.660Z,4.50
2022-11-23T08:57:58.696Z,4.60
2022-11-23T09:20:08.675Z,4.80
2022-11-23T09:42:35.389Z,5.10
2022-11-23T09:45:12.100Z,5.10
2022-11-23T09:50:09.255Z,5.20
2022-11-23T09:52:40.742Z,5.30
2022-11-23T09:55:24.856Z,5.30
2022-11-23T09:57:54.467Z,5.40
2022-11-23T10:00:23.593Z,5.50
2022-11-23T10:05:21.052Z,5.50
2022-11-23T10:08:03.873Z,5.60
2022-11-23T10:10:41.941Z,5.40
2022-11-23T10:13:25.717Z,5.60
2022-11-23T10:16:22.675Z,5.70
2022-11-23T10:19:04.803Z,5.70
2022-11-23T10:21:44.175Z,5.70
2022-11-23T10:24:24.974Z,5.70
2022-11-23T10:29:35.171Z,5.80
2022-11-23T10:34:38.499Z,6.10
2022-11-23T10:37:11.939Z,6.20
2022-11-23T10:42:19.381Z,6.40
2022-11-23T10:44:47.675Z,6.50
2022-11-23T10:47:49.051Z,6.60
2022-11-23T10:50:22.002Z,6.60
2022-11-23T10:52:57.592Z,6.80
2022-11-23T10:55:30.560Z,6.80
2022-11-23T11:00:30.553Z,6.90
2022-11-23T11:02:59.293Z,6.90
2022-11-23T11:06:07.421Z,6.90
2022-11-23T11:08:30.677Z,7.00
2022-11-23T11:13:40.968Z,7.10
2022-11-23T11:16:22.276Z,7.00
2022-11-23T11:21:32.724Z,7.10
2022-11-23T11:24:14.016Z,7.10
2022-11-23T11:27:08.095Z,7.40
2022-11-23T11:29:47.538Z,7.50
2022-11-23T11:34:53.874Z,7.40
2022-11-23T11:37:35.723Z,7.50
2022-11-23T11:43:14.540Z,7.60
2022-11-23T11:46:06.549Z,7.70
2022-11-23T11:48:56.176Z,7.80
2022-11-23T11:51:48.048Z,7.90
2022-11-23T11:54:25.902Z,7.90
2022-11-23T11:56:57.721Z,8.00
2022-11-23T11:59:42.964Z,8.10
2022-11-23T12:02:23.219Z,8.10
2022-11-23T12:05:07.217Z,8.10
2022-11-23T12:07:41.327Z,8.20
2022-11-23T12:10:17.187Z,8.20
2022-11-23T12:15:48.261Z,8.30
2022-11-23T12:18:19.095Z,8.30
2022-11-23T12:23:34.556Z,8.40
2022-11-23T12:26:22.455Z,8.40
2022-11-23T12:29:13.826Z,8.40
2022-11-23T12:31:46.613Z,8.50
2022-11-23T12:34:30.501Z,8.50
2022-11-23T12:37:20.109Z,8.50
2022-11-23T12:40:13.458Z,8.50
2022-11-23T12:42:48.345Z,8.40
2022-11-23T12:45:46.997Z,8.40
2022-11-23T12:48:28.752Z,8.30
2022-11-23T12:51:21.390Z,8.40
2022-11-23T12:54:00.455Z,8.40
2022-11-23T12:56:55.151Z,8.30
2022-11-23T12:59:24.545Z,8.30
2022-11-23T13:01:59.354Z,8.20
2022-11-23T13:04:46.501Z,8.40
2022-11-23T13:07:49.313Z,8.80
2022-11-23T13:10:29.756Z,8.40
2022-11-23T13:13:16.177Z,8.50
2022-11-23T13:18:41.991Z,8.50
2022-11-23T13:21:40.570Z,8.60
2022-11-23T13:24:30.866Z,8.60
2022-11-23T13:27:15.938Z,8.60
2022-11-23T13:29:51.690Z,8.70
2022-11-23T13:32:40.188Z,8.70
2022-11-23T13:35:16.364Z,8.70
2022-11-23T13:37:58.415Z,8.80
2022-11-23T13:40:36.039Z,8.70
2022-11-23T13:43:41.502Z,8.70
2022-11-23T13:46:28.798Z,8.60
2022-11-23T13:49:00.076Z,8.50
2022-11-23T13:51:35.488Z,8.50
2022-11-23T13:54:21.747Z,8.30
2022-11-23T13:57:00.367Z,8.50
2022-11-23T13:59:34.926Z,8.50
2022-11-23T14:02:08.123Z,8.40
2022-11-23T14:07:04.650Z,8.50
2022-11-23T14:10:10.310Z,8.60
2022-11-23T14:12:42.737Z,8.60
2022-11-23T14:18:10.605Z,8.60
2022-11-23T14:21:11.451Z,8.50
2022-11-23T14:26:29.156Z,8.70
2022-11-23T14:29:13.928Z,8.30
2022-11-23T14:32:00.893Z,8.50
2022-11-23T14:35:10.835Z,8.50
2022-11-23T14:37:53.945Z,8.50
2022-11-23T14:40:29.440Z,8.40
2022-11-23T14:42:57.720Z,8.50
2022-11-23T14:45:29.578Z,8.40
2022-11-23T14:50:29.016Z,8.30
2022-11-23T14:52:59.015Z,8.30
2022-11-23T14:55:29.387Z,8.20
2022-11-23T14:58:00.937Z,8.20
2022-11-23T15:00:41.494Z,8.10
2022-11-23T15:06:18.568Z,7.90
2022-11-23T15:08:57.324Z,7.80
2022-11-23T15:11:28.712Z,7.80
2022-11-23T15:21:28.245Z,7.40
2022-11-23T15:23:57.550Z,7.40
2022-11-23T15:26:47.340Z,7.30
2022-11-23T15:29:31.532Z,7.30
2022-11-23T15:34:46.848Z,7.00
2022-11-23T15:39:42.258Z,7.10
2022-11-23T15:42:18.366Z,7.10
2022-11-23T15:47:27.823Z,6.90
2022-11-23T15:50:03.434Z,6.80
2022-11-23T15:52:35.837Z,6.80
2022-11-23T15:55:14.552Z,6.70
2022-11-23T15:57:42.025Z,6.60
2022-11-23T16:00:21.203Z,6.60
2022-11-23T16:05:25.024Z,6.40
2022-11-23T16:07:59.809Z,6.30
2022-11-23T16:10:31.610Z,6.20
2022-11-23T16:13:00.647Z,6.10
2022-11-23T16:15:40.662Z,6.00
2022-11-23T16:18:13.332Z,5.80
2022-11-23T16:20:44.923Z,5.70
2022-11-23T16:23:20.154Z,5.60
2022-11-23T16:25:55.430Z,5.60
2022-11-23T16:28:36.484Z,5.50
2022-11-23T16:45:49.338Z,5.40
2022-11-23T16:48:25.395Z,5.40
2022-11-23T16:50:53.395Z,5.40
2022-11-23T16:55:55.630Z,5.30
2022-11-23T17:03:19.905Z,5.10
2022-11-23T17:05:47.740Z,5.30
2022-11-23T17:13:26.800Z,5.20
2022-11-23T17:28:16.438Z,5.10
2022-11-23T17:33:12.118Z,5.10
2022-11-23T17:38:12.181Z,5.00
2022-11-23T17:45:34.041Z,5.00
2022-11-23T18:00:22.412Z,4.90
2022-11-23T18:10:16.780Z,4.80
2022-11-23T19:56:29.503Z,4.20
2022-11-23T19:59:01.060Z,4.30
2022-11-23T20:01:32.079Z,4.30
2022-11-23T20:04:08.275Z,4.30
2022-11-23T20:06:37.988Z,4.30
2022-11-23T20:09:07.712Z,4.30
2022-11-23T20:16:31.861Z,4.20
2022-11-23T20:19:04.482Z,4.20
2022-11-23T20:31:29.202Z,4.20
2022-11-23T20:33:57.047Z,4.20
2022-11-23T20:36:34.676Z,4.30
2022-11-23T20:39:04.590Z,4.20
2022-11-23T20:41:34.463Z,4.30
2022-11-23T20:44:04.656Z,4.30
2022-11-23T21:14:24.704Z,4.10
2022-11-23T21:16:56.846Z,4.10
2022-11-23T21:19:26.408Z,4.20
2022-11-23T21:21:54.023Z,4.10
2022-11-23T21:26:48.862Z,4.10
2022-11-23T21:29:17.195Z,4.10
2022-11-23T21:31:45.744Z,4.10
2022-11-23T21:34:17.689Z,4.10
2022-11-23T21:39:13.017Z,4.10
2022-11-23T21:44:09.008Z,4.10
2022-11-23T21:46:37.663Z,4.10
2022-11-23T21:49:06.757Z,4.10
2022-11-23T21:51:34.470Z,4.10
2022-11-23T21:54:03.693Z,4.10
2022-11-23T22:01:31.912Z,4.20
2022-11-23T22:04:10.996Z,4.20
2022-11-23T22:06:39.783Z,4.20
2022-11-23T22:09:09.589Z,4.20
2022-11-23T22:11:38.289Z,4.30
2022-11-23T22:14:08.048Z,4.30
2022-11-23T22:16:37.327Z,4.20
2022-11-23T22:19:05.363Z,4.20
2022-11-23T22:21:34.570Z,4.30
2022-11-23T22:31:25.508Z,4.20
2022-11-23T22:33:53.402Z,4.30
2022-11-23T22:36:22.825Z,4.30
2022-11-23T22:39:01.888Z,4.30
2022-11-23T22:46:25.404Z,4.40
2022-11-23T22:48:53.349Z,4.40
2022-11-23T22:51:23.831Z,4.40
2022-11-23T22:54:00.744Z,4.40
2022-11-23T22:56:29.739Z,4.40
2022-11-23T23:01:30.119Z,4.50
2022-11-23T23:03:59.009Z,4.50
2022-11-23T23:06:29.229Z,4.50
2022-11-23T23:08:58.393Z,4.50
2022-11-23T23:11:27.607Z,4.60
2022-11-23T23:21:21.308Z,4.60
2022-11-23T23:23:50.550Z,4.60
2022-11-23T23:26:20.140Z,4.70
2022-11-23T23:31:16.485Z,4.80
2022-11-23T23:33:44.964Z,4.80
2022-11-23T23:36:19.926Z,4.80
2022-11-23T23:41:15.017Z,4.80
2022-11-23T23:46:12.346Z,4.80
2022-11-23T23:48:40.232Z,4.90
2022-11-23T23:51:08.608Z,4.90
2022-11-23T23:53:36.340Z,4.90
2022-11-23T23:56:05.716Z,5.00
